Airfield :
LOGIN :

Register | Disclaimer

   EN    FR    IT 

 










Legend :    VFR   Marginal VFR   IFR   Intensive IFR   Very Intensive IFR
Visi :
Ceiling :
>= 8 km
>= 3000ft
5 to 8 km
1000 to 3000 ft
1500m to 5 km
500 to 1000 ft
800 to 1500m
200 to 500 ft
< 800m
< 200 ft
Symbols :   Thunderstorms  Fog  Heavy snow  Heavy precipitations  Wind > 20 kt
SIGMETs :     Misc.  Thunderstorms  Icing  Turbulence  Mountain Waves  Volcanic Ashes






- Airport Elevation : 2026 ft
- IATA code : TOJ


LETO - Madrid Torrejon

CURRENT METAR :
  • 080330Z 28012KT 240V300 9999 BKN050 07/01 Q1012 NOSIG

EXPIRED METARs :
  • 080300Z 31016KT 270V330 9999 BKN050 07/02 Q1012 NOSIG
  • 080230Z 29018G29KT 270V330 9999 BKN050 07/02 Q1012 NOSIG
  • 080200Z 29017KT 260V320 9999 BKN044 09/03 Q1011 NOSIG
  • 080130Z 29012KT 9999 BKN041 09/06 Q1011 NOSIG
  • 080100Z 27005KT 9999 BKN040 09/09 Q1011 NOSIG

TAF TAF LETO
Valid from the 08 at 00:00 until the 09 at 00:00 UTC


072300Z 0800/0824 25016KT 9999 BKN016 TX10/0815Z TN03/0806Z
PROB40
TEMPO 0800/0806 24018G28KT
TEMPO 0800/0803 4000 RADZ BKN010
BECMG 0800/0802 27016KT
PROB40
TEMPO 0806/0818 27018G32KT
PROB40
TEMPO 0813/0818 27020G35KT



MET'MAP, your aeronautical weather chart ! - Copyright ORBIFLY December 2007 - Disclaimer

ORBIFLY MET'MAP TEAM :

Programming & Development : Alexandra Zaïnal
Concept & original design : Baudouin d'Aumeries
Assistance for programming : Marc-Olivier Méhu
Technical & hardware support : Manuel Goepfert

Contact : metmap@orbifly.com




SOURCES & CREDITS :

   NOAA